Time;durP1;ratioP1;P1;durP2;ratioP2;P2;SDS_P1;SDS_P2;PMS_P1;PMS_P2;Temp;Humidity;BMP_temperature;BMP_pressure;BME280_temperature;BME280_humidity;BME280_pressure;Samples;Min_cycle;Max_cycle;Signal;HPM_P1;HPM_P2
2022/07/27 00:02:16;;;;;;;20.45;11.45;;;;;;;18.60;76.70;94167.52;1640880;85;21562;-56
2022/07/27 00:04:45;;;;;;;14.80;10.93;;;;;;;18.56;77.29;94165.64;1674170;84;21187;-55
2022/07/27 00:07:13;;;;;;;26.62;11.18;;;;;;;18.53;77.39;94155.53;1658279;85;21519;-56
2022/07/27 00:09:42;;;;;;;19.42;9.90;;;;;;;18.54;78.07;94154.25;1664428;85;21230;-56
2022/07/27 00:12:11;;;;;;;18.95;10.50;;;;;;;18.55;79.01;94147.41;1659864;85;21007;-56
2022/07/27 00:14:39;;;;;;;21.12;11.97;;;;;;;18.54;79.87;94150.08;1650822;85;21503;-55
2022/07/27 00:17:07;;;;;;;17.45;11.63;;;;;;;18.56;80.04;94156.52;1648139;85;21170;-56
2022/07/27 00:19:37;;;;;;;19.85;11.90;;;;;;;18.58;80.06;94153.34;1641910;85;21072;-55
2022/07/27 00:22:05;;;;;;;20.50;10.75;;;;;;;18.62;79.91;94160.05;1654382;85;21082;-56
2022/07/27 00:24:33;;;;;;;14.70;11.38;;;;;;;18.65;79.63;94164.59;1643243;86;21036;-55
2022/07/27 00:27:01;;;;;;;16.42;10.95;;;;;;;18.65;79.63;94168.78;1663942;85;20996;-55
2022/07/27 00:29:31;;;;;;;37.05;12.05;;;;;;;18.62;80.58;94176.77;1650696;85;21974;-56
2022/07/27 00:31:59;;;;;;;16.85;10.98;;;;;;;18.58;81.19;94169.30;1671545;84;21047;-55
2022/07/27 00:34:27;;;;;;;19.57;11.10;;;;;;;18.55;81.43;94165.52;1650089;86;21028;-56
2022/07/27 00:36:54;;;;;;;16.65;10.08;;;;;;;18.54;81.55;94169.58;1627906;87;21056;-56
2022/07/27 00:39:22;;;;;;;16.85;10.90;;;;;;;18.56;81.36;94175.39;1646875;86;21095;-55
2022/07/27 00:41:50;;;;;;;21.62;11.15;;;;;;;18.59;81.75;94170.19;1640399;86;21272;-56
2022/07/27 00:44:30;;;;;;;16.95;11.45;;;;;;;18.59;82.24;94170.80;1648912;85;21104;-55
2022/07/27 00:46:58;;;;;;;18.30;11.33;;;;;;;18.55;82.40;94176.66;1642092;86;21028;-56
2022/07/27 00:49:28;;;;;;;20.70;10.90;;;;;;;18.52;82.54;94174.13;1629784;86;21595;-57
2022/07/27 00:51:57;;;;;;;22.40;11.22;;;;;;;18.52;82.83;94176.30;1648027;86;21040;-56
2022/07/27 00:54:26;;;;;;;22.75;12.03;;;;;;;18.49;82.35;94181.48;1645998;86;21302;-56
2022/07/27 00:56:53;;;;;;;18.82;12.45;;;;;;;18.45;82.47;94178.20;1649547;86;21064;-55
2022/07/27 00:59:22;;;;;;;20.30;10.82;;;;;;;18.42;82.67;94173.66;1650947;86;20972;-55
2022/07/27 01:01:50;;;;;;;14.75;10.82;;;;;;;18.40;82.60;94181.00;1648573;86;21331;-56
2022/07/27 01:04:17;;;;;;;18.82;10.32;;;;;;;18.36;82.89;94181.28;1645059;86;21167;-55
2022/07/27 01:06:45;;;;;;;26.27;11.68;;;;;;;18.34;83.21;94178.87;1628699;86;21873;-55
2022/07/27 01:12:01;;;;;;;18.07;10.60;;;;;;;18.34;84.48;94185.22;1657305;85;21044;-55
2022/07/27 01:14:28;;;;;;;17.48;10.38;;;;;;;18.30;85.25;94187.48;1659491;84;21056;-56
2022/07/27 01:16:56;;;;;;;14.07;9.75;;;;;;;18.29;85.70;94185.97;1654015;85;21155;-54
2022/07/27 01:19:23;;;;;;;18.45;10.90;;;;;;;18.28;85.89;94181.67;1651960;85;21122;-57
2022/07/27 01:21:53;;;;;;;16.10;10.55;;;;;;;18.27;86.18;94184.98;1653211;85;21226;-56
2022/07/27 01:24:21;;;;;;;12.98;9.68;;;;;;;18.24;86.11;94177.63;1652687;85;21752;-56
2022/07/27 01:26:49;;;;;;;14.90;11.20;;;;;;;18.19;86.29;94175.59;1646309;85;21043;-56
2022/07/27 01:29:17;;;;;;;17.27;11.03;;;;;;;18.19;86.89;94172.19;1637010;86;21032;-56
2022/07/27 01:31:45;;;;;;;16.12;10.25;;;;;;;18.22;87.34;94166.98;1657569;85;21302;-56
2022/07/27 01:34:14;;;;;;;18.15;10.98;;;;;;;18.24;88.07;94158.88;1661285;85;21128;-57
2022/07/27 01:36:44;;;;;;;16.60;10.65;;;;;;;18.27;88.15;94156.48;1650768;84;20993;-56
2022/07/27 01:39:13;;;;;;;13.85;10.53;;;;;;;18.24;88.25;94143.56;1643617;86;21465;-57
2022/07/27 01:41:43;;;;;;;13.65;10.30;;;;;;;18.16;88.24;94144.59;1664582;85;20976;-56
2022/07/27 01:44:11;;;;;;;13.03;9.98;;;;;;;18.10;88.63;94137.52;1655019;85;21144;-55
2022/07/27 01:46:40;;;;;;;13.62;9.50;;;;;;;18.07;89.01;94143.48;1643372;85;21021;-55
2022/07/27 01:49:08;;;;;;;12.13;10.65;;;;;;;18.02;89.52;94151.20;1637223;86;21040;-55
2022/07/27 01:51:40;;;;;;;21.73;11.38;;;;;;;17.99;90.11;94145.91;1664049;85;21493;-57
2022/07/27 01:54:08;;;;;;;16.97;11.40;;;;;;;17.97;90.64;94141.48;1667371;85;21203;-57
2022/07/27 01:56:37;;;;;;;13.85;10.28;;;;;;;17.95;91.28;94139.82;1655643;85;21174;-57
2022/07/27 01:59:08;;;;;;;12.47;10.20;;;;;;;17.96;91.66;94139.33;1664745;84;21036;-56
2022/07/27 02:01:44;;;;;;;15.78;11.30;;;;;;;18.02;91.83;94135.14;1663815;85;20995;-57
2022/07/27 02:04:17;;;;;;;13.08;10.90;;;;;;;18.01;92.02;94134.38;1667759;85;21007;-57
2022/07/27 02:06:46;;;;;;;23.35;12.25;;;;;;;18.03;92.64;94141.58;1644095;85;21022;-58
2022/07/27 02:09:14;;;;;;;16.37;11.08;;;;;;;18.07;92.32;94144.11;1660592;84;21455;-57
2022/07/27 02:14:29;;;;;;;16.70;10.65;;;;;;;17.98;92.24;94149.31;1649740;85;21065;-55
2022/07/27 02:16:58;;;;;;;16.42;11.43;;;;;;;17.93;93.08;94152.10;1673137;84;21071;-56
2022/07/27 02:19:28;;;;;;;17.40;11.65;;;;;;;17.93;93.58;94149.31;1660682;85;21084;-55
2022/07/27 02:21:56;;;;;;;18.40;11.30;;;;;;;17.95;93.32;94147.55;1648066;85;21229;-56
2022/07/27 02:24:24;;;;;;;17.10;11.57;;;;;;;17.95;92.99;94147.55;1651653;85;21082;-56
2022/07/27 02:26:53;;;;;;;15.10;11.57;;;;;;;17.94;93.07;94142.48;1646284;85;21137;-55
2022/07/27 02:29:21;;;;;;;16.82;10.93;;;;;;;17.95;93.83;94145.39;1668259;85;22116;-56
2022/07/27 02:31:48;;;;;;;17.05;11.83;;;;;;;18.00;94.11;94151.60;1642697;87;21040;-56
2022/07/27 02:34:17;;;;;;;27.52;15.08;;;;;;;18.02;93.75;94151.84;1630451;86;21368;-55
2022/07/27 02:36:45;;;;;;;46.98;21.27;;;;;;;18.01;93.84;94153.12;1661023;85;21584;-56
2022/07/27 02:39:15;;;;;;;65.95;29.70;;;;;;;17.98;94.29;94156.27;1676634;84;20987;-57
2022/07/27 02:41:45;;;;;;;55.48;25.23;;;;;;;17.93;94.26;94157.67;1674422;84;21471;-56
2022/07/27 02:44:16;;;;;;;44.35;23.32;;;;;;;17.91;94.13;94153.25;1674959;85;20955;-56
2022/07/27 02:46:44;;;;;;;28.55;16.15;;;;;;;17.87;94.11;94155.53;1669242;84;21141;-56
2022/07/27 02:49:12;;;;;;;30.37;16.55;;;;;;;17.84;94.09;94163.52;1666328;84;20963;-56
2022/07/27 02:51:40;;;;;;;38.00;19.10;;;;;;;17.81;94.16;94167.31;1662168;85;21712;-56
2022/07/27 02:54:08;;;;;;;39.35;17.92;;;;;;;17.76;94.31;94173.00;1645626;85;21113;-56
2022/07/27 02:56:37;;;;;;;33.42;16.20;;;;;;;17.76;94.28;94173.00;1684089;84;20967;-57
2022/07/27 02:59:04;;;;;;;26.15;15.55;;;;;;;17.77;94.20;94173.75;1673512;85;21169;-57
2022/07/27 03:01:33;;;;;;;29.12;15.23;;;;;;;17.77;94.03;94183.48;1672094;85;20976;-57
2022/07/27 03:04:01;;;;;;;22.22;15.08;;;;;;;17.79;94.45;94176.81;1669523;83;20971;-56
2022/07/27 03:06:30;;;;;;;16.48;12.13;;;;;;;17.81;94.74;94169.45;1671282;85;21087;-57
2022/07/27 03:08:58;;;;;;;18.23;11.75;;;;;;;17.83;94.86;94168.95;1669415;84;21130;-57
2022/07/27 04:55:55;;;;;;;18.77;14.30;;;;;;;18.47;93.14;94190.98;1678411;85;21531;-59
2022/07/27 04:58:25;;;;;;;18.55;13.00;;;;;;;18.47;93.06;94206.31;1647246;85;20999;-60
2022/07/27 05:00:53;;;;;;;15.30;12.98;;;;;;;18.48;93.21;94205.03;1673297;85;21299;-59
2022/07/27 05:03:22;;;;;;;19.00;12.47;;;;;;;18.50;93.49;94214.28;1673610;85;20963;-58
2022/07/27 05:05:52;;;;;;;18.87;13.93;;;;;;;18.53;93.52;94208.46;1662209;85;21126;-59
2022/07/27 05:08:20;;;;;;;16.50;13.20;;;;;;;18.56;93.34;94211.61;1648173;85;21126;-59
2022/07/27 05:10:49;;;;;;;16.07;12.50;;;;;;;18.60;93.21;94207.92;1673925;85;20987;-59
2022/07/27 05:13:18;;;;;;;14.90;12.03;;;;;;;18.64;93.04;94215.37;1631845;85;21254;-60
2022/07/27 05:15:47;;;;;;;14.58;12.43;;;;;;;18.66;92.46;94217.66;1673873;85;21002;-60
2022/07/27 05:18:17;;;;;;;14.20;12.70;;;;;;;18.67;92.58;94223.36;1679002;85;21102;-59
2022/07/27 05:20:48;;;;;;;16.55;12.78;;;;;;;18.72;92.29;94227.52;1674600;84;21109;-60
2022/07/27 05:23:16;;;;;;;16.60;12.85;;;;;;;18.74;92.20;94227.77;1643974;83;21108;-60
2022/07/27 05:25:44;;;;;;;15.48;12.47;;;;;;;18.81;92.47;94223.69;1678620;83;21495;-59
2022/07/27 05:28:13;;;;;;;18.57;12.68;;;;;;;18.86;92.70;94229.22;1651140;85;21419;-59
2022/07/27 05:30:41;;;;;;;17.10;12.53;;;;;;;18.89;93.01;94235.19;1669223;85;21087;-60
2022/07/27 05:33:10;;;;;;;16.85;15.05;;;;;;;18.94;93.36;94243.39;1673289;84;21665;-59
2022/07/27 05:35:39;;;;;;;16.30;12.78;;;;;;;18.96;93.42;94237.43;1670052;83;21570;-60
2022/07/27 05:38:07;;;;;;;11.83;10.00;;;;;;;18.95;93.45;94233.75;1645328;85;21301;-60
2022/07/27 05:40:35;;;;;;;10.75;9.08;;;;;;;18.91;92.33;94236.83;1678831;84;21030;-59
2022/07/27 05:43:04;;;;;;;8.58;7.12;;;;;;;18.85;91.67;94231.14;1636710;86;21050;-59
2022/07/27 05:45:33;;;;;;;9.58;5.92;;;;;;;18.75;91.72;94237.64;1614812;86;21128;-59
2022/07/27 05:48:00;;;;;;;8.68;4.95;;;;;;;18.72;91.51;94244.25;1609118;86;21241;-60
2022/07/27 05:50:29;;;;;;;6.83;3.75;;;;;;;18.72;91.37;94247.66;1625279;87;21573;-59
2022/07/27 05:52:59;;;;;;;3.77;3.47;;;;;;;18.76;91.16;94243.34;1650473;85;21026;-60
2022/07/27 05:55:27;;;;;;;5.25;3.35;;;;;;;18.81;90.91;94239.77;1612754;87;21085;-59
2022/07/27 05:57:55;;;;;;;4.62;3.50;;;;;;;18.87;90.24;94240.50;1614475;88;21547;-59
2022/07/27 06:00:23;;;;;;;3.83;2.92;;;;;;;18.93;89.56;94247.45;1595463;87;20994;-60
2022/07/27 06:02:53;;;;;;;4.40;3.75;;;;;;;18.95;89.29;94245.67;1623229;87;21183;-60
2022/07/27 06:05:21;;;;;;;3.83;3.10;;;;;;;18.96;88.82;94251.99;1622616;87;21057;-58
2022/07/27 06:07:58;;;;;;;2.42;2.22;;;;;;;19.00;88.40;94257.44;1629965;87;21035;-58
2022/07/27 06:10:29;;;;;;;2.47;2.15;;;;;;;19.00;87.29;94256.04;1631669;87;21030;-57
2022/07/27 06:12:57;;;;;;;2.65;2.45;;;;;;;19.00;86.44;94271.38;1624022;86;21095;-65
2022/07/27 06:15:26;;;;;;;5.53;4.30;;;;;;;18.98;86.26;94271.13;1609979;86;22074;-68
2022/07/27 06:17:53;;;;;;;3.70;2.90;;;;;;;18.95;86.02;94277.73;1622860;85;21099;-71
2022/07/27 06:20:23;;;;;;;2.90;2.40;;;;;;;18.94;85.80;94276.22;1608532;86;21161;-61
2022/07/27 06:23:04;;;;;;;4.58;4.00;;;;;;;18.93;85.91;94273.31;1616738;87;22174;-68
2022/07/27 06:28:25;;;;;;;;;;;;;;;18.99;85.80;94278.22;1645702;82;22193;-64
2022/07/27 06:30:53;;;;;;;3.62;2.35;;;;;;;18.97;84.35;94280.77;1648435;85;20467;-62
2022/07/27 06:33:26;;;;;;;2.72;1.90;;;;;;;18.94;83.92;94285.98;1641055;85;21035;-64
2022/07/27 06:35:51;;;;;;;4.75;2.08;;;;;;;18.94;83.63;94287.99;1631148;84;21039;-61
2022/07/27 06:38:20;;;;;;;2.30;2.10;;;;;;;18.92;83.76;94294.09;1636393;86;21066;-59
2022/07/27 06:40:51;;;;;;;1.98;1.72;;;;;;;18.86;83.79;94289.80;1581590;89;21253;-57
2022/07/27 06:43:23;;;;;;;1.60;1.50;;;;;;;18.83;82.98;94294.36;1604486;87;21153;-63
2022/07/27 06:45:53;;;;;;;1.82;1.50;;;;;;;18.80;82.03;94297.44;1599291;88;21034;-63
2022/07/27 06:48:20;;;;;;;1.60;1.50;;;;;;;18.78;81.38;94297.16;1651363;85;21108;-62
2022/07/27 06:50:50;;;;;;;2.37;1.87;;;;;;;18.75;81.21;94300.97;1634005;86;21190;-65
2022/07/27 06:53:18;;;;;;;3.47;2.25;;;;;;;18.74;81.50;94296.67;1631854;86;21262;-61
2022/07/27 06:55:46;;;;;;;3.27;2.72;;;;;;;18.74;81.63;94296.05;1645258;84;21101;-62
2022/07/27 06:58:15;;;;;;;4.75;1.70;;;;;;;18.73;81.03;94290.97;1639781;85;21092;-60
2022/07/27 07:00:42;;;;;;;1.70;1.60;;;;;;;18.70;80.22;94296.95;1638240;85;21121;-64
2022/07/27 07:03:10;;;;;;;1.80;1.70;;;;;;;18.71;80.06;94310.23;1640782;86;21214;-62
2022/07/27 07:05:44;;;;;;;1.67;1.57;;;;;;;18.72;79.35;94298.59;1626008;86;21954;-64
2022/07/27 07:08:13;;;;;;;3.37;1.92;;;;;;;18.71;79.00;94298.47;1635122;85;21026;-62
2022/07/27 07:10:44;;;;;;;2.77;1.80;;;;;;;18.71;78.36;94297.69;1581165;87;21549;-65
2022/07/27 07:13:12;;;;;;;1.93;1.60;;;;;;;18.67;78.17;94310.48;1616216;86;22470;-59
2022/07/27 07:15:42;;;;;;;1.90;1.62;;;;;;;18.67;77.74;94309.09;1631364;86;21400;-59
2022/07/27 07:18:13;;;;;;;2.00;1.87;;;;;;;18.65;77.10;94315.81;1626481;85;21079;-60
2022/07/27 07:20:41;;;;;;;2.87;1.80;;;;;;;18.61;77.25;94315.32;1638637;86;21013;-61
2022/07/27 07:23:08;;;;;;;2.05;1.85;;;;;;;18.56;77.01;94316.72;1639108;85;21069;-58
2022/07/27 07:25:36;;;;;;;1.90;1.80;;;;;;;18.53;76.91;94312.17;1660509;84;21034;-58
2022/07/27 07:28:04;;;;;;;5.53;1.80;;;;;;;18.53;76.83;94316.34;1651638;84;21039;-62
2022/07/27 07:30:32;;;;;;;2.27;2.08;;;;;;;18.55;76.54;94317.36;1638442;85;21142;-58
2022/07/27 07:33:00;;;;;;;25.75;13.68;;;;;;;18.57;76.74;94321.79;1651001;85;21070;-61
2022/07/27 07:35:30;;;;;;;20.82;10.25;;;;;;;18.61;76.28;94316.72;1626779;86;21004;-60
2022/07/27 07:37:58;;;;;;;14.13;6.90;;;;;;;18.63;76.04;94327.36;1647293;85;21061;-59
2022/07/27 07:40:26;;;;;;;5.40;3.92;;;;;;;18.66;76.06;94329.87;1641979;85;21090;-65
2022/07/27 07:42:59;;;;;;;4.37;3.98;;;;;;;18.74;75.94;94332.91;1640365;84;21220;-67
2022/07/27 07:45:27;;;;;;;4.25;2.65;;;;;;;18.82;76.02;94336.70;1630310;86;21079;-63
2022/07/27 07:47:56;;;;;;;3.02;2.30;;;;;;;18.87;75.19;94340.84;1667169;85;21100;-61
2022/07/27 07:50:25;;;;;;;3.02;2.27;;;;;;;18.90;74.88;94339.85;1645078;85;21058;-60
2022/07/27 07:52:54;;;;;;;4.33;2.72;;;;;;;18.93;74.51;94340.22;1662703;84;21027;-59
2022/07/27 07:55:22;;;;;;;3.00;2.60;;;;;;;18.95;73.93;94347.44;1652223;85;22629;-69
2022/07/27 07:57:50;;;;;;;3.35;3.05;;;;;;;19.02;73.78;94339.93;1642000;84;21074;-66
2022/07/27 08:00:19;;;;;;;5.78;5.10;;;;;;;19.10;73.88;94345.74;1645623;85;21012;-68
2022/07/27 08:02:52;;;;;;;12.43;9.60;;;;;;;19.13;73.33;94348.27;1644617;85;21032;-60
2022/07/27 08:05:21;;;;;;;6.47;5.87;;;;;;;19.14;73.76;94348.39;1644074;84;21419;-61
2022/07/27 08:07:49;;;;;;;10.82;5.00;;;;;;;19.19;73.76;94357.41;1649275;85;21237;-64
2022/07/27 08:10:18;;;;;;;6.22;3.50;;;;;;;19.20;73.36;94347.77;1648196;84;21060;-63
2022/07/27 08:12:50;;;;;;;4.70;2.85;;;;;;;19.21;73.06;94354.12;1604930;86;21113;-62
2022/07/27 08:15:20;;;;;;;3.47;3.17;;;;;;;19.24;73.49;94363.63;1634996;85;21069;-63
2022/07/27 08:17:51;;;;;;;3.85;3.37;;;;;;;19.30;73.14;94360.17;1629482;85;21050;-60
2022/07/27 08:20:20;;;;;;;2.85;2.62;;;;;;;19.38;72.39;94359.00;1630279;86;21132;-61
2022/07/27 08:22:49;;;;;;;5.12;2.85;;;;;;;19.43;72.04;94373.56;1641684;85;21483;-63
2022/07/27 08:25:18;;;;;;;7.35;3.67;;;;;;;19.49;72.41;94370.88;1651567;85;22261;-60
2022/07/27 08:27:46;;;;;;;5.15;2.90;;;;;;;19.54;72.10;94368.69;1648407;84;21130;-60
2022/07/27 08:30:14;;;;;;;5.40;3.00;;;;;;;19.63;71.59;94381.59;1661385;84;21121;-63
2022/07/27 08:32:54;;;;;;;2.90;2.60;;;;;;;19.69;71.71;94390.06;1662682;84;21178;-63
2022/07/27 08:35:23;;;;;;;2.90;2.70;;;;;;;19.71;71.45;94379.14;1649531;85;21197;-62
2022/07/27 08:37:53;;;;;;;3.33;3.05;;;;;;;19.75;71.10;94387.26;1649166;85;21132;-59
2022/07/27 08:40:21;;;;;;;5.08;3.02;;;;;;;19.74;71.00;94389.93;1644551;85;21562;-59
2022/07/27 08:42:48;;;;;;;4.60;3.10;;;;;;;19.78;71.00;94389.75;1653346;85;21443;-62
2022/07/27 08:45:18;;;;;;;6.83;3.08;;;;;;;19.84;71.01;94390.51;1669842;84;21602;-66
2022/07/27 08:47:47;;;;;;;5.60;3.45;;;;;;;19.87;71.07;94389.47;1669497;84;21319;-61
2022/07/27 08:50:24;;;;;;;4.25;3.67;;;;;;;19.82;70.25;94386.08;1662779;84;21133;-61
2022/07/27 08:53:09;;;;;;;3.75;2.98;;;;;;;19.75;70.29;94394.98;1631184;86;21154;-61
2022/07/27 08:55:42;;;;;;;7.72;3.87;;;;;;;19.72;70.36;94391.83;1595075;86;21098;-64
2022/07/27 08:58:11;;;;;;;5.92;3.30;;;;;;;19.73;70.66;94391.95;1592049;87;21839;-62
2022/07/27 09:00:43;;;;;;;3.20;2.90;;;;;;;19.72;69.94;94391.83;1633206;85;21169;-62
2022/07/27 09:03:11;;;;;;;4.53;3.50;;;;;;;19.68;70.17;94387.16;1663208;84;21203;-59
2022/07/27 09:05:42;;;;;;;9.35;4.00;;;;;;;19.69;70.77;94387.90;1637859;84;21027;-62
2022/07/27 09:08:13;;;;;;;9.53;4.30;;;;;;;19.69;71.60;94388.67;1642538;84;21096;-68
2022/07/27 09:10:41;;;;;;;8.18;4.05;;;;;;;19.77;71.34;94388.23;1632094;85;21751;-60
2022/07/27 09:13:27;;;;;;;5.08;3.42;;;;;;;19.89;71.01;94400.88;1630627;86;21002;-63
2022/07/27 09:16:02;;;;;;;5.97;3.45;;;;;;;19.90;69.23;94394.02;1645501;84;21211;-61
2022/07/27 09:18:32;;;;;;;4.67;3.92;;;;;;;19.86;68.88;94400.52;1628666;86;21145;-64
2022/07/27 09:21:19;;;;;;;3.67;3.27;;;;;;;19.89;68.01;94401.53;1625734;85;21118;-63
2022/07/27 09:23:51;;;;;;;8.10;3.25;;;;;;;19.82;67.84;94394.45;1636411;84;21568;-58
2022/07/27 09:26:25;;;;;;;4.63;3.10;;;;;;;19.82;68.08;94403.45;1657300;85;21021;-59
2022/07/27 09:29:05;;;;;;;7.65;4.20;;;;;;;19.88;68.08;94411.93;1636354;86;21447;-62
2022/07/27 09:31:50;;;;;;;9.28;4.03;;;;;;;19.89;67.15;94418.29;1646799;84;21546;-61
2022/07/27 09:34:32;;;;;;;3.90;3.55;;;;;;;19.94;66.93;94415.45;1672397;82;90498;-61
2022/07/27 09:37:02;;;;;;;3.42;2.67;;;;;;;20.05;67.32;94421.64;1684771;82;21217;-61
2022/07/27 09:39:30;;;;;;;4.25;2.47;;;;;;;20.13;66.29;94417.78;1662876;83;22048;-64
2022/07/27 09:42:00;;;;;;;3.77;3.27;;;;;;;20.25;66.25;94422.04;1703826;83;21082;-60
2022/07/27 09:44:36;;;;;;;4.70;3.25;;;;;;;20.35;65.51;94419.06;1684765;83;21110;-61
2022/07/27 09:47:27;;;;;;;3.33;2.70;;;;;;;20.45;65.50;94414.66;1651883;85;21069;-58
2022/07/27 09:50:19;;;;;;;4.78;3.37;;;;;;;20.54;65.31;94413.70;1661719;84;21639;-62
2022/07/27 09:52:47;;;;;;;10.55;3.80;;;;;;;20.69;65.70;94419.70;1682572;83;21106;-60
2022/07/27 09:55:19;;;;;;;3.95;3.27;;;;;;;20.77;64.59;94426.88;1670266;83;22118;-63
2022/07/27 09:57:57;;;;;;;5.95;3.52;;;;;;;20.87;64.77;94429.48;1683693;83;21046;-61
2022/07/27 10:00:27;;;;;;;5.35;3.20;;;;;;;20.90;63.40;94435.45;1653651;84;21145;-65
2022/07/27 10:02:59;;;;;;;5.47;2.90;;;;;;;20.89;63.41;94429.09;1647105;85;21794;-65
2022/07/27 10:05:29;;;;;;;3.42;2.98;;;;;;;20.96;63.44;94435.50;1686839;83;21098;-65
2022/07/27 10:07:57;;;;;;;4.08;2.80;;;;;;;21.03;63.25;94438.38;1646312;84;21749;-63
2022/07/27 10:10:26;;;;;;;4.67;3.12;;;;;;;21.09;63.22;94442.64;1657764;83;21211;-61
2022/07/27 10:12:53;;;;;;;8.15;4.53;;;;;;;21.10;62.99;94432.22;1683720;83;21067;-62
2022/07/27 10:15:21;;;;;;;6.60;3.25;;;;;;;21.12;62.59;94441.59;1681198;83;21236;-60
2022/07/27 10:18:05;;;;;;;7.65;3.40;;;;;;;21.15;62.34;94443.99;1683325;82;21177;-61
2022/07/27 10:20:41;;;;;;;3.20;2.43;;;;;;;21.16;62.36;94448.31;1650589;84;21101;-61
2022/07/27 10:26:38;;;;;;;3.30;3.00;;;;;;;21.11;62.19;94451.27;1716192;82;21117;-61
2022/07/27 10:29:17;;;;;;;4.33;3.60;;;;;;;21.08;62.51;94445.98;1700358;82;21874;-66
2022/07/27 10:31:58;;;;;;;4.70;2.90;;;;;;;21.09;63.03;94446.09;1711593;82;20989;-61
2022/07/27 10:34:41;;;;;;;4.17;3.27;;;;;;;21.15;62.76;94443.99;1688757;83;21100;-61
2022/07/27 10:37:13;;;;;;;4.22;2.92;;;;;;;21.19;61.98;94451.45;1698201;82;21077;-61
2022/07/27 10:43:20;;;;;;;6.45;4.00;;;;;;;21.34;62.23;94442.80;1718979;82;22103;-63
2022/07/27 10:45:50;;;;;;;6.78;4.00;;;;;;;21.47;61.34;94446.36;1706515;83;21026;-65
2022/07/27 10:48:38;;;;;;;6.67;3.17;;;;;;;21.55;61.34;94451.48;1707876;83;21074;-57
2022/07/27 10:51:11;;;;;;;4.75;3.20;;;;;;;21.65;61.41;94447.09;1711849;82;21453;-60
2022/07/27 10:53:40;;;;;;;10.90;3.50;;;;;;;21.65;61.19;94452.69;1685225;82;21121;-52
2022/07/27 10:56:09;;;;;;;8.08;3.65;;;;;;;21.62;61.34;94455.11;1701634;83;21090;-53
2022/07/27 10:58:42;;;;;;;7.03;3.60;;;;;;;21.56;60.67;94454.39;1678218;82;21499;-56
2022/07/27 11:01:23;;;;;;;5.45;3.37;;;;;;;21.54;61.32;94452.77;1690316;83;21278;-58
2022/07/27 11:03:56;;;;;;;7.50;4.35;;;;;;;21.48;60.64;94457.67;1692019;82;21102;-58
2022/07/27 11:06:25;;;;;;;8.15;3.67;;;;;;;21.40;60.96;94458.12;1654576;84;21030;-57
2022/07/27 11:08:54;;;;;;;5.92;3.65;;;;;;;21.41;61.56;94451.23;1679933;83;21308;-56
2022/07/27 11:11:24;;;;;;;6.03;3.55;;;;;;;21.45;61.33;94444.73;1706602;83;21075;-52
2022/07/27 11:13:54;;;;;;;8.25;3.87;;;;;;;21.49;61.77;94450.78;1705504;83;21027;-54
2022/07/27 11:16:22;;;;;;;6.12;3.65;;;;;;;21.48;61.43;94450.67;1650001;84;21103;-54
2022/07/27 11:19:04;;;;;;;4.78;3.90;;;;;;;21.51;61.04;94449.62;1636695;85;21047;-54
2022/07/27 11:21:36;;;;;;;5.58;3.92;;;;;;;21.51;61.05;94452.41;1690271;82;21306;-56
2022/07/27 11:24:11;;;;;;;11.22;5.35;;;;;;;21.46;61.17;94451.19;1693063;83;21086;-61
2022/07/27 11:26:45;;;;;;;6.85;4.42;;;;;;;21.40;61.09;94455.32;1702183;81;21064;-58
2022/07/27 11:29:14;;;;;;;13.60;4.78;;;;;;;21.30;61.28;94457.70;1683098;83;21116;-60
2022/07/27 11:31:44;;;;;;;4.62;3.42;;;;;;;21.23;61.85;94456.12;1679202;83;21056;-55
2022/07/27 11:34:16;;;;;;;4.85;3.40;;;;;;;21.19;61.25;94451.45;1691676;82;21978;-53
2022/07/27 11:36:49;;;;;;;;;;;;;;;21.09;61.52;94451.03;1697882;82;22234;-57
2022/07/27 11:39:24;;;;;;;;;;;;;;;21.05;61.83;94447.77;1679390;82;20186;-64
2022/07/27 11:41:56;;;;;;;4.97;3.50;;;;;;;21.04;61.74;94447.66;1704054;82;20130;-57
2022/07/27 11:44:24;;;;;;;7.00;4.40;;;;;;;21.11;61.71;94429.54;1703370;82;21025;-60
2022/07/27 11:46:52;;;;;;;8.03;4.28;;;;;;;21.18;61.67;94421.96;1693296;83;21539;-61
2022/07/27 11:49:29;;;;;;;4.10;3.50;;;;;;;21.29;61.73;94424.66;1667642;83;21494;-58
2022/07/27 11:52:24;;;;;;;;;;;;;;;;;;;;;
2022/07/27 11:54:50;;;;;;;4.67;4.15;;;;;;;21.46;60.68;94433.64;1701757;82;21070;-59
2022/07/27 11:57:19;;;;;;;6.47;3.93;;;;;;;21.49;60.54;94439.59;1691781;81;21222;-60
2022/07/27 11:59:47;;;;;;;11.97;4.28;;;;;;;21.50;60.54;94434.84;1694706;82;21345;-57
2022/07/27 12:02:17;;;;;;;6.20;4.10;;;;;;;21.50;60.39;94430.65;1696983;82;21049;-58
2022/07/27 12:04:49;;;;;;;5.58;4.40;;;;;;;21.50;60.44;94434.11;1711265;81;21023;-62
2022/07/27 12:07:22;;;;;;;6.83;4.35;;;;;;;21.51;60.38;94431.42;1667310;84;21730;-60
2022/07/27 12:10:03;;;;;;;5.28;3.55;;;;;;;21.52;60.07;94423.14;1690172;82;21467;-59
2022/07/27 12:12:34;;;;;;;5.30;4.65;;;;;;;21.49;59.94;94422.80;1697864;82;21032;-63
2022/07/27 12:15:19;;;;;;;5.50;4.17;;;;;;;21.44;60.46;94429.96;1686561;82;21534;-62
2022/07/27 12:17:56;;;;;;;7.65;4.80;;;;;;;21.42;61.36;94433.16;1685646;82;21061;-61
2022/07/27 12:20:33;;;;;;;10.43;4.60;;;;;;;21.34;61.41;94432.23;1694964;82;21146;-57
2022/07/27 12:23:06;;;;;;;6.42;4.47;;;;;;;21.32;62.12;94434.80;1693236;82;21077;-63
2022/07/27 12:25:35;;;;;;;6.83;4.25;;;;;;;21.29;61.98;94435.86;1689040;83;21128;-61
2022/07/27 12:28:11;;;;;;;5.85;4.45;;;;;;;21.26;62.43;94442.50;1667808;83;21002;-58
2022/07/27 12:30:43;;;;;;;7.15;4.25;;;;;;;21.24;62.35;94456.23;1691687;83;21131;-61
2022/07/27 12:33:36;;;;;;;13.03;6.22;;;;;;;21.17;60.94;94459.62;1678739;83;21086;-58
2022/07/27 12:36:07;;;;;;;6.50;4.60;;;;;;;21.10;61.32;94456.00;1702330;82;21029;-61
2022/07/27 12:38:39;;;;;;;6.12;4.45;;;;;;;21.11;61.49;94456.12;1656441;84;21155;-62
2022/07/27 12:41:08;;;;;;;6.33;4.55;;;;;;;21.11;61.39;94458.27;1702998;82;21583;-59
2022/07/27 12:43:37;;;;;;;7.00;4.55;;;;;;;21.13;60.52;94456.36;1676486;83;21597;-58
2022/07/27 12:46:14;;;;;;;9.38;4.67;;;;;;;21.14;61.13;94447.42;1706446;81;21043;-58
2022/07/27 12:48:41;;;;;;;5.95;4.60;;;;;;;21.16;61.39;94449.70;1670457;83;21182;-56
2022/07/27 12:51:09;;;;;;;7.87;4.50;;;;;;;21.17;61.32;94448.42;1661527;84;21211;-59
2022/07/27 12:53:37;;;;;;;10.50;4.95;;;;;;;21.17;61.36;94451.22;1685311;82;21123;-57
2022/07/27 12:56:08;;;;;;;6.62;4.33;;;;;;;21.18;60.99;94455.53;1722658;82;21465;-54
2022/07/27 12:58:36;;;;;;;4.75;4.17;;;;;;;21.19;61.20;94453.63;1697410;81;21138;-57
2022/07/27 13:01:05;;;;;;;7.05;4.40;;;;;;;21.24;60.69;94445.05;1694153;83;21061;-55
2022/07/27 13:03:34;;;;;;;6.70;4.70;;;;;;;21.27;60.33;94444.02;1697807;82;21109;-58
2022/07/27 13:06:01;;;;;;;6.53;4.30;;;;;;;21.29;60.50;94433.80;1702677;82;21841;-63
2022/07/27 13:08:28;;;;;;;5.40;3.92;;;;;;;21.34;60.23;94440.63;1721881;82;21060;-58
2022/07/27 13:10:59;;;;;;;8.58;4.70;;;;;;;21.41;60.53;94442.84;1695870;83;21410;-56
2022/07/27 13:13:27;;;;;;;7.12;4.00;;;;;;;21.46;59.85;94429.45;1706943;81;20997;-64
2022/07/27 13:15:56;;;;;;;6.33;4.75;;;;;;;21.49;60.08;94432.59;1672938;82;21218;-61
2022/07/27 13:18:24;;;;;;;7.00;5.72;;;;;;;21.55;59.74;94434.05;1717767;82;21563;-57
2022/07/27 13:20:51;;;;;;;7.50;4.83;;;;;;;21.56;59.54;94441.80;1689595;82;20978;-58
2022/07/27 13:23:19;;;;;;;8.65;4.58;;;;;;;21.49;59.23;94441.73;1669194;83;21018;-55
2022/07/27 13:25:47;;;;;;;13.43;5.03;;;;;;;21.41;59.51;94438.64;1681071;83;21031;-58
2022/07/27 13:28:15;;;;;;;7.75;4.92;;;;;;;21.36;59.44;94434.64;1694226;82;21123;-58
2022/07/27 13:30:43;;;;;;;13.22;5.47;;;;;;;21.36;59.54;94439.46;1688982;82;21192;-60
2022/07/27 13:33:11;;;;;;;8.03;4.40;;;;;;;21.37;59.38;94439.58;1696315;82;21238;-59
2022/07/27 13:35:42;;;;;;;7.85;5.17;;;;;;;21.36;59.38;94449.26;1706938;82;21039;-59
2022/07/27 13:38:11;;;;;;;9.03;5.00;;;;;;;21.32;59.58;94439.00;1680109;83;21081;-57
2022/07/27 13:40:40;;;;;;;9.30;4.53;;;;;;;21.24;59.65;94439.44;1688815;82;21338;-58
2022/07/27 13:43:08;;;;;;;10.13;5.08;;;;;;;21.20;59.65;94441.78;1675744;82;21649;-62
2022/07/27 13:45:39;;;;;;;10.68;5.65;;;;;;;21.18;59.90;94438.75;1700946;82;21072;-59